sensor_id;sensor_type;location;lat;lon;timestamp;pressure;altitude;pressure_sealevel;temperature;humidity
79037;BME280;68434;59.896;30.474;2023-04-25T00:01:07;100742.75;;;12.79;62.22
79037;BME280;68434;59.896;30.474;2023-04-25T00:03:35;100741.56;;;12.74;62.48
79037;BME280;68434;59.896;30.474;2023-04-25T00:06:03;100742.25;;;12.76;62.03
79037;BME280;68434;59.896;30.474;2023-04-25T00:08:31;100741.72;;;12.64;62.46
79037;BME280;68434;59.896;30.474;2023-04-25T00:11:00;100731.38;;;12.52;63.53
79037;BME280;68434;59.896;30.474;2023-04-25T00:13:28;100747.66;;;12.52;63.21
79037;BME280;68434;59.896;30.474;2023-04-25T00:15:55;100744.59;;;12.55;63.64
79037;BME280;68434;59.896;30.474;2023-04-25T00:18:24;100737.81;;;12.51;62.99
79037;BME280;68434;59.896;30.474;2023-04-25T00:20:55;100746.09;;;12.49;63.70
79037;BME280;68434;59.896;30.474;2023-04-25T00:23:22;100745.28;;;12.49;63.38
79037;BME280;68434;59.896;30.474;2023-04-25T00:25:50;100736.94;;;12.42;63.21
79037;BME280;68434;59.896;30.474;2023-04-25T00:28:19;100736.09;;;12.42;62.97
79037;BME280;68434;59.896;30.474;2023-04-25T00:30:47;100736.25;;;12.40;63.43
79037;BME280;68434;59.896;30.474;2023-04-25T00:33:15;100732.03;;;12.38;63.75
79037;BME280;68434;59.896;30.474;2023-04-25T00:35:42;100732.88;;;12.38;63.50
79037;BME280;68434;59.896;30.474;2023-04-25T00:38:10;100735.44;;;12.40;63.38
79037;BME280;68434;59.896;30.474;2023-04-25T00:40:37;100733.88;;;12.37;62.87
79037;BME280;68434;59.896;30.474;2023-04-25T00:43:05;100735.56;;;12.30;63.77
79037;BME280;68434;59.896;30.474;2023-04-25T00:45:38;100737.25;;;12.23;63.94
79037;BME280;68434;59.896;30.474;2023-04-25T00:48:06;100734.50;;;12.15;63.66
79037;BME280;68434;59.896;30.474;2023-04-25T00:50:34;100738.59;;;12.11;63.75
79037;BME280;68434;59.896;30.474;2023-04-25T00:53:02;100738.91;;;12.08;63.96
79037;BME280;68434;59.896;30.474;2023-04-25T00:55:30;100743.28;;;12.01;63.62
79037;BME280;68434;59.896;30.474;2023-04-25T00:58:00;100741.06;;;11.97;64.07
79037;BME280;68434;59.896;30.474;2023-04-25T01:00:28;100742.06;;;11.96;63.90
79037;BME280;68434;59.896;30.474;2023-04-25T01:02:58;100747.81;;;11.93;64.23
79037;BME280;68434;59.896;30.474;2023-04-25T01:05:28;100753.56;;;11.90;63.53
79037;BME280;68434;59.896;30.474;2023-04-25T01:07:57;100749.50;;;11.86;63.94
79037;BME280;68434;59.896;30.474;2023-04-25T01:10:24;100748.97;;;11.82;63.83
79037;BME280;68434;59.896;30.474;2023-04-25T01:12:52;100749.13;;;11.81;63.87
79037;BME280;68434;59.896;30.474;2023-04-25T01:15:19;100752.38;;;11.84;63.62
79037;BME280;68434;59.896;30.474;2023-04-25T01:17:47;100749.81;;;11.83;63.72
79037;BME280;68434;59.896;30.474;2023-04-25T01:20:16;100742.69;;;11.82;63.62
79037;BME280;68434;59.896;30.474;2023-04-25T01:22:46;100750.81;;;11.74;63.70
79037;BME280;68434;59.896;30.474;2023-04-25T01:25:14;100745.38;;;11.74;62.46
79037;BME280;68434;59.896;30.474;2023-04-25T01:27:42;100750.50;;;11.85;62.07
79037;BME280;68434;59.896;30.474;2023-04-25T01:30:10;100737.47;;;11.88;62.10
79037;BME280;68434;59.896;30.474;2023-04-25T01:32:38;100736.63;;;11.88;61.50
79037;BME280;68434;59.896;30.474;2023-04-25T01:35:07;100743.25;;;11.93;61.30
79037;BME280;68434;59.896;30.474;2023-04-25T01:37:35;100743.06;;;11.87;61.14
79037;BME280;68434;59.896;30.474;2023-04-25T01:40:06;100741.69;;;11.83;61.05
79037;BME280;68434;59.896;30.474;2023-04-25T01:42:36;100743.88;;;11.79;60.30
79037;BME280;68434;59.896;30.474;2023-04-25T01:45:04;100742.34;;;11.77;60.81
79037;BME280;68434;59.896;30.474;2023-04-25T01:47:33;100739.31;;;11.80;60.25
79037;BME280;68434;59.896;30.474;2023-04-25T01:50:01;100733.53;;;11.75;60.00
79037;BME280;68434;59.896;30.474;2023-04-25T01:52:30;100743.72;;;11.81;59.85
79037;BME280;68434;59.896;30.474;2023-04-25T01:54:59;100735.75;;;11.79;59.25
79037;BME280;68434;59.896;30.474;2023-04-25T01:57:32;100740.84;;;11.82;58.76
79037;BME280;68434;59.896;30.474;2023-04-25T02:00:02;100743.06;;;11.87;58.69
79037;BME280;68434;59.896;30.474;2023-04-25T02:02:41;100744.09;;;11.86;58.79
79037;BME280;68434;59.896;30.474;2023-04-25T02:05:24;100746.97;;;11.84;57.97
79037;BME280;68434;59.896;30.474;2023-04-25T02:07:52;100736.94;;;11.85;57.65
79037;BME280;68434;59.896;30.474;2023-04-25T02:10:19;100745.78;;;11.87;57.12
79037;BME280;68434;59.896;30.474;2023-04-25T02:13:11;100741.38;;;11.86;56.66
79037;BME280;68434;59.896;30.474;2023-04-25T02:18:53;100733.25;;;11.86;55.99
79037;BME280;68434;59.896;30.474;2023-04-25T02:21:20;100729.66;;;11.85;55.16
79037;BME280;68434;59.896;30.474;2023-04-25T02:23:48;100733.06;;;11.87;55.91
79037;BME280;68434;59.896;30.474;2023-04-25T02:26:18;100731.53;;;11.85;55.20
79037;BME280;68434;59.896;30.474;2023-04-25T02:28:47;100745.06;;;11.85;55.75
79037;BME280;68434;59.896;30.474;2023-04-25T02:31:15;100745.59;;;11.88;55.64
79037;BME280;68434;59.896;30.474;2023-04-25T02:33:43;100746.63;;;11.87;55.25
79037;BME280;68434;59.896;30.474;2023-04-25T02:36:10;100747.13;;;11.91;54.94
79037;BME280;68434;59.896;30.474;2023-04-25T02:38:38;100740.88;;;11.90;54.58
79037;BME280;68434;59.896;30.474;2023-04-25T02:41:06;100741.22;;;11.95;54.70
79037;BME280;68434;59.896;30.474;2023-04-25T02:43:34;100742.78;;;11.98;54.30
79037;BME280;68434;59.896;30.474;2023-04-25T02:46:03;100740.88;;;11.98;54.54
79037;BME280;68434;59.896;30.474;2023-04-25T02:48:31;100740.41;;;12.03;53.35
79037;BME280;68434;59.896;30.474;2023-04-25T02:50:58;100736.69;;;12.04;53.11
79037;BME280;68434;59.896;30.474;2023-04-25T02:53:26;100738.06;;;12.08;52.72
79037;BME280;68434;59.896;30.474;2023-04-25T02:55:54;100744.16;;;12.10;52.53
79037;BME280;68434;59.896;30.474;2023-04-25T02:58:24;100739.94;;;12.15;52.25
79037;BME280;68434;59.896;30.474;2023-04-25T03:00:53;100738.59;;;12.19;51.53
79037;BME280;68434;59.896;30.474;2023-04-25T03:03:22;100735.38;;;12.24;51.52
79037;BME280;68434;59.896;30.474;2023-04-25T03:05:51;100739.31;;;12.29;51.09
79037;BME280;68434;59.896;30.474;2023-04-25T03:08:24;100741.84;;;12.31;50.82
79037;BME280;68434;59.896;30.474;2023-04-25T03:10:55;100743.38;;;12.33;51.28
79037;BME280;68434;59.896;30.474;2023-04-25T03:13:24;100748.97;;;12.32;50.96
79037;BME280;68434;59.896;30.474;2023-04-25T03:15:53;100748.31;;;12.38;50.41
79037;BME280;68434;59.896;30.474;2023-04-25T03:18:22;100742.22;;;12.44;49.98
79037;BME280;68434;59.896;30.474;2023-04-25T03:20:50;100745.28;;;12.49;50.24
79037;BME280;68434;59.896;30.474;2023-04-25T03:23:17;100745.78;;;12.44;50.18
79037;BME280;68434;59.896;30.474;2023-04-25T03:25:45;100747.81;;;12.50;49.94
79037;BME280;68434;59.896;30.474;2023-04-25T03:28:13;100749.69;;;12.50;49.52
79037;BME280;68434;59.896;30.474;2023-04-25T03:30:41;100745.59;;;12.54;49.70
79037;BME280;68434;59.896;30.474;2023-04-25T03:33:09;100745.28;;;12.57;49.41
79037;BME280;68434;59.896;30.474;2023-04-25T03:35:38;100749.38;;;12.61;48.91
79037;BME280;68434;59.896;30.474;2023-04-25T03:38:06;100746.16;;;12.65;49.28
79037;BME280;68434;59.896;30.474;2023-04-25T03:40:39;100750.22;;;12.69;47.52
79037;BME280;68434;59.896;30.474;2023-04-25T03:43:25;100753.78;;;12.70;48.37
79037;BME280;68434;59.896;30.474;2023-04-25T03:45:58;100751.72;;;12.72;48.72
79037;BME280;68434;59.896;30.474;2023-04-25T03:48:26;100750.56;;;12.74;48.14
79037;BME280;68434;59.896;30.474;2023-04-25T03:50:55;100753.25;;;12.82;48.22
79037;BME280;68434;59.896;30.474;2023-04-25T03:53:24;100751.72;;;12.88;48.14
79037;BME280;68434;59.896;30.474;2023-04-25T03:56:10;100753.75;;;12.94;48.44
79037;BME280;68434;59.896;30.474;2023-04-25T03:58:39;100755.97;;;12.98;47.85
79037;BME280;68434;59.896;30.474;2023-04-25T04:01:07;100763.81;;;13.01;47.33
79037;BME280;68434;59.896;30.474;2023-04-25T04:03:37;100754.16;;;13.07;47.11
79037;BME280;68434;59.896;30.474;2023-04-25T04:06:07;100754.47;;;13.12;46.08
79037;BME280;68434;59.896;30.474;2023-04-25T04:08:40;100756.66;;;13.16;46.40
79037;BME280;68434;59.896;30.474;2023-04-25T04:11:09;100758.53;;;13.24;46.99
79037;BME280;68434;59.896;30.474;2023-04-25T04:13:37;100759.72;;;13.30;45.74
79037;BME280;68434;59.896;30.474;2023-04-25T04:16:06;100757.84;;;13.30;46.01
79037;BME280;68434;59.896;30.474;2023-04-25T04:18:33;100752.41;;;13.38;46.71
79037;BME280;68434;59.896;30.474;2023-04-25T04:21:01;100756.28;;;13.44;46.59
79037;BME280;68434;59.896;30.474;2023-04-25T04:23:33;100764.25;;;13.53;46.87
79037;BME280;68434;59.896;30.474;2023-04-25T04:26:02;100751.34;;;13.55;46.47
79037;BME280;68434;59.896;30.474;2023-04-25T04:28:48;100755.41;;;13.59;46.62
79037;BME280;68434;59.896;30.474;2023-04-25T04:31:30;100757.97;;;13.61;45.28
79037;BME280;68434;59.896;30.474;2023-04-25T04:33:59;100759.47;;;13.63;45.45
79037;BME280;68434;59.896;30.474;2023-04-25T04:36:27;100762.69;;;13.67;45.89
79037;BME280;68434;59.896;30.474;2023-04-25T04:39:14;100757.59;;;13.72;45.00
79037;BME280;68434;59.896;30.474;2023-04-25T04:41:53;100751.28;;;13.71;45.47
79037;BME280;68434;59.896;30.474;2023-04-25T04:44:47;100755.84;;;13.79;44.39
79037;BME280;68434;59.896;30.474;2023-04-25T04:47:33;100764.53;;;13.82;43.80
79037;BME280;68434;59.896;30.474;2023-04-25T04:50:21;100755.66;;;13.88;44.76
79037;BME280;68434;59.896;30.474;2023-04-25T04:53:07;100757.50;;;13.96;44.29
79037;BME280;68434;59.896;30.474;2023-04-25T04:55:39;100760.16;;;14.04;44.36
79037;BME280;68434;59.896;30.474;2023-04-25T04:58:27;100763.19;;;14.17;44.24
79037;BME280;68434;59.896;30.474;2023-04-25T05:01:22;100758.22;;;14.20;44.43
79037;BME280;68434;59.896;30.474;2023-04-25T05:04:06;100752.09;;;14.26;44.11
79037;BME280;68434;59.896;30.474;2023-04-25T05:06:51;100763.81;;;14.35;44.04
79037;BME280;68434;59.896;30.474;2023-04-25T05:09:31;100755.56;;;14.43;43.37
79037;BME280;68434;59.896;30.474;2023-04-25T05:12:12;100756.94;;;14.47;43.38
79037;BME280;68434;59.896;30.474;2023-04-25T05:15:07;100754.66;;;14.50;43.07
79037;BME280;68434;59.896;30.474;2023-04-25T05:17:34;100756.50;;;14.58;42.98
79037;BME280;68434;59.896;30.474;2023-04-25T05:20:21;100751.19;;;14.64;42.89
79037;BME280;68434;59.896;30.474;2023-04-25T05:23:07;100757.34;;;14.81;43.03
79037;BME280;68434;59.896;30.474;2023-04-25T05:25:59;100757.50;;;14.87;43.07
79037;BME280;68434;59.896;30.474;2023-04-25T05:28:51;100754.63;;;15.03;42.62
79037;BME280;68434;59.896;30.474;2023-04-25T05:31:38;100755.56;;;15.10;42.09
79037;BME280;68434;59.896;30.474;2023-04-25T05:34:14;100753.91;;;15.24;41.66
79037;BME280;68434;59.896;30.474;2023-04-25T05:36:56;100757.59;;;15.31;40.63
79037;BME280;68434;59.896;30.474;2023-04-25T05:39:24;100754.19;;;15.37;40.96
79037;BME280;68434;59.896;30.474;2023-04-25T05:41:52;100751.47;;;15.52;41.35
79037;BME280;68434;59.896;30.474;2023-04-25T05:44:47;100752.41;;;15.59;40.35
79037;BME280;68434;59.896;30.474;2023-04-25T05:47:22;100747.97;;;15.72;40.08
79037;BME280;68434;59.896;30.474;2023-04-25T05:50:19;100744.78;;;15.83;40.06
79037;BME280;68434;59.896;30.474;2023-04-25T05:53:10;100746.94;;;16.02;39.62
79037;BME280;68434;59.896;30.474;2023-04-25T05:55:40;100746.50;;;16.34;39.00
79037;BME280;68434;59.896;30.474;2023-04-25T05:58:28;100741.69;;;16.36;38.42
79037;BME280;68434;59.896;30.474;2023-04-25T06:00:59;100736.84;;;16.53;38.36
79037;BME280;68434;59.896;30.474;2023-04-25T06:03:27;100742.78;;;16.56;37.85
79037;BME280;68434;59.896;30.474;2023-04-25T06:05:57;100741.50;;;16.73;38.86
79037;BME280;68434;59.896;30.474;2023-04-25T06:08:26;100739.91;;;17.28;37.21
79037;BME280;68434;59.896;30.474;2023-04-25T06:10:54;100733.09;;;18.13;35.97
79037;BME280;68434;59.896;30.474;2023-04-25T06:13:41;100736.34;;;17.89;35.63
79037;BME280;68434;59.896;30.474;2023-04-25T06:16:10;100741.38;;;18.32;35.54
79037;BME280;68434;59.896;30.474;2023-04-25T06:18:38;100732.09;;;19.00;35.26
79037;BME280;68434;59.896;30.474;2023-04-25T06:21:06;100725.34;;;19.09;35.08
79037;BME280;68434;59.896;30.474;2023-04-25T06:23:34;100728.66;;;18.65;34.37
79037;BME280;68434;59.896;30.474;2023-04-25T06:26:04;100732.38;;;18.38;34.71
79037;BME280;68434;59.896;30.474;2023-04-25T06:31:21;100731.25;;;19.39;34.93
79037;BME280;68434;59.896;30.474;2023-04-25T06:33:50;100719.22;;;19.40;34.52
79037;BME280;68434;59.896;30.474;2023-04-25T06:36:21;100720.25;;;19.52;33.95
79037;BME280;68434;59.896;30.474;2023-04-25T06:38:56;100714.03;;;19.95;32.98
79037;BME280;68434;59.896;30.474;2023-04-25T06:41:24;100719.00;;;20.31;32.14
79037;BME280;68434;59.896;30.474;2023-04-25T06:43:52;100717.81;;;21.63;28.39
79037;BME280;68434;59.896;30.474;2023-04-25T06:46:35;100708.47;;;23.48;27.01
79037;BME280;68434;59.896;30.474;2023-04-25T06:49:04;100706.97;;;24.26;25.16
79037;BME280;68434;59.896;30.474;2023-04-25T06:51:32;100706.69;;;25.12;24.60
79037;BME280;68434;59.896;30.474;2023-04-25T06:53:59;100714.19;;;25.11;22.92
79037;BME280;68434;59.896;30.474;2023-04-25T06:56:34;100710.25;;;25.40;22.96
79037;BME280;68434;59.896;30.474;2023-04-25T06:59:12;100703.03;;;25.56;22.40
79037;BME280;68434;59.896;30.474;2023-04-25T07:01:42;100707.25;;;25.42;22.67
79037;BME280;68434;59.896;30.474;2023-04-25T07:04:15;100700.03;;;25.79;22.42
79037;BME280;68434;59.896;30.474;2023-04-25T07:06:48;100705.53;;;26.12;23.27
79037;BME280;68434;59.896;30.474;2023-04-25T07:09:19;100707.06;;;25.65;23.34
79037;BME280;68434;59.896;30.474;2023-04-25T07:11:48;100694.66;;;25.89;23.80
79037;BME280;68434;59.896;30.474;2023-04-25T07:14:16;100700.06;;;26.39;22.43
79037;BME280;68434;59.896;30.474;2023-04-25T07:16:46;100689.72;;;27.09;21.70
79037;BME280;68434;59.896;30.474;2023-04-25T07:19:14;100680.63;;;26.87;21.23
79037;BME280;68434;59.896;30.474;2023-04-25T07:21:41;100694.75;;;26.16;21.48
79037;BME280;68434;59.896;30.474;2023-04-25T07:24:10;100696.16;;;25.42;21.78
79037;BME280;68434;59.896;30.474;2023-04-25T07:26:42;100696.56;;;25.01;22.48
79037;BME280;68434;59.896;30.474;2023-04-25T07:29:31;100700.78;;;24.75;22.84
79037;BME280;68434;59.896;30.474;2023-04-25T07:32:03;100699.22;;;24.40;22.67
79037;BME280;68434;59.896;30.474;2023-04-25T07:34:31;100704.53;;;24.02;21.91
79037;BME280;68434;59.896;30.474;2023-04-25T07:36:58;100702.47;;;23.51;22.20
79037;BME280;68434;59.896;30.474;2023-04-25T07:39:37;100694.31;;;23.33;22.89
79037;BME280;68434;59.896;30.474;2023-04-25T07:42:05;100698.19;;;22.91;23.32
79037;BME280;68434;59.896;30.474;2023-04-25T07:44:34;100696.00;;;22.93;23.83
79037;BME280;68434;59.896;30.474;2023-04-25T07:47:07;100701.50;;;22.70;23.23
79037;BME280;68434;59.896;30.474;2023-04-25T07:49:35;100694.97;;;22.64;23.42
79037;BME280;68434;59.896;30.474;2023-04-25T07:52:04;100700.59;;;22.58;23.36
79037;BME280;68434;59.896;30.474;2023-04-25T07:54:34;100688.63;;;22.64;23.53
79037;BME280;68434;59.896;30.474;2023-04-25T07:57:10;100707.56;;;22.60;23.62
79037;BME280;68434;59.896;30.474;2023-04-25T07:59:40;100702.69;;;22.44;23.11
79037;BME280;68434;59.896;30.474;2023-04-25T08:02:09;100696.25;;;22.50;23.12
79037;BME280;68434;59.896;30.474;2023-04-25T08:04:36;100684.94;;;22.70;23.51
79037;BME280;68434;59.896;30.474;2023-04-25T08:07:07;100686.34;;;22.61;22.92
79037;BME280;68434;59.896;30.474;2023-04-25T08:09:44;100697.94;;;22.51;22.47
79037;BME280;68434;59.896;30.474;2023-04-25T08:12:20;100694.09;;;22.52;22.50
79037;BME280;68434;59.896;30.474;2023-04-25T08:14:47;100694.28;;;22.69;22.78
79037;BME280;68434;59.896;30.474;2023-04-25T08:17:16;100692.91;;;22.89;22.66
79037;BME280;68434;59.896;30.474;2023-04-25T08:19:45;100691.34;;;22.93;22.34
79037;BME280;68434;59.896;30.474;2023-04-25T08:22:22;100689.41;;;22.82;21.39
79037;BME280;68434;59.896;30.474;2023-04-25T08:24:54;100695.66;;;22.89;21.09
79037;BME280;68434;59.896;30.474;2023-04-25T08:27:22;100688.03;;;23.03;21.15
79037;BME280;68434;59.896;30.474;2023-04-25T08:29:50;100686.44;;;22.95;21.12
79037;BME280;68434;59.896;30.474;2023-04-25T08:32:20;100693.97;;;22.88;20.55
79037;BME280;68434;59.896;30.474;2023-04-25T08:35:09;100679.34;;;22.88;19.81
79037;BME280;68434;59.896;30.474;2023-04-25T08:37:37;100689.78;;;22.86;19.20
79037;BME280;68434;59.896;30.474;2023-04-25T08:40:12;100691.41;;;22.64;19.51
79037;BME280;68434;59.896;30.474;2023-04-25T08:43:01;100682.97;;;22.59;20.05
79037;BME280;68434;59.896;30.474;2023-04-25T08:45:32;100685.59;;;22.54;19.93
79037;BME280;68434;59.896;30.474;2023-04-25T08:48:03;100693.44;;;22.68;20.73
79037;BME280;68434;59.896;30.474;2023-04-25T08:50:31;100691.50;;;22.69;20.82
79037;BME280;68434;59.896;30.474;2023-04-25T08:52:59;100678.44;;;22.64;20.93
79037;BME280;68434;59.896;30.474;2023-04-25T08:55:31;100686.44;;;22.54;19.78
79037;BME280;68434;59.896;30.474;2023-04-25T08:57:59;100679.41;;;22.70;20.74
79037;BME280;68434;59.896;30.474;2023-04-25T09:00:27;100683.06;;;22.82;20.83
79037;BME280;68434;59.896;30.474;2023-04-25T09:02:56;100680.28;;;22.82;20.60
79037;BME280;68434;59.896;30.474;2023-04-25T09:05:32;100675.44;;;22.66;20.48
79037;BME280;68434;59.896;30.474;2023-04-25T09:08:00;100677.03;;;22.25;19.79
79037;BME280;68434;59.896;30.474;2023-04-25T09:10:28;100678.78;;;22.38;20.46
79037;BME280;68434;59.896;30.474;2023-04-25T09:13:05;100696.50;;;22.31;19.92
79037;BME280;68434;59.896;30.474;2023-04-25T09:15:49;100681.72;;;22.25;20.13
79037;BME280;68434;59.896;30.474;2023-04-25T09:18:35;100673.75;;;22.35;19.36
79037;BME280;68434;59.896;30.474;2023-04-25T09:21:10;100685.25;;;22.32;19.69
79037;BME280;68434;59.896;30.474;2023-04-25T09:23:43;100670.34;;;22.51;20.60
79037;BME280;68434;59.896;30.474;2023-04-25T09:26:14;100667.28;;;22.59;20.49
79037;BME280;68434;59.896;30.474;2023-04-25T09:28:44;100668.75;;;22.44;21.10
79037;BME280;68434;59.896;30.474;2023-04-25T09:31:22;100672.53;;;22.13;20.49
79037;BME280;68434;59.896;30.474;2023-04-25T09:33:59;100662.66;;;22.23;20.93
79037;BME280;68434;59.896;30.474;2023-04-25T09:36:29;100666.22;;;22.72;21.47
79037;BME280;68434;59.896;30.474;2023-04-25T09:39:16;100661.56;;;22.84;20.28
79037;BME280;68434;59.896;30.474;2023-04-25T09:41:54;100667.00;;;22.90;19.98
79037;BME280;68434;59.896;30.474;2023-04-25T09:44:23;100663.28;;;23.08;20.07
79037;BME280;68434;59.896;30.474;2023-04-25T09:46:52;100664.84;;;22.92;20.11
79037;BME280;68434;59.896;30.474;2023-04-25T09:49:24;100672.19;;;23.10;20.20
79037;BME280;68434;59.896;30.474;2023-04-25T09:52:19;100681.59;;;23.32;20.25
79037;BME280;68434;59.896;30.474;2023-04-25T09:55:25;100684.41;;;23.14;20.17
79037;BME280;68434;59.896;30.474;2023-04-25T09:57:55;100686.09;;;23.03;20.20
79037;BME280;68434;59.896;30.474;2023-04-25T10:00:29;100687.75;;;22.93;20.11
79037;BME280;68434;59.896;30.474;2023-04-25T10:03:01;100684.28;;;22.97;20.20
79037;BME280;68434;59.896;30.474;2023-04-25T10:05:51;100685.22;;;22.91;19.76
79037;BME280;68434;59.896;30.474;2023-04-25T10:08:22;100686.44;;;22.95;19.53
79037;BME280;68434;59.896;30.474;2023-04-25T10:10:52;100695.66;;;22.89;19.49
79037;BME280;68434;59.896;30.474;2023-04-25T10:13:21;100676.22;;;22.84;19.57
79037;BME280;68434;59.896;30.474;2023-04-25T10:15:51;100688.59;;;22.93;19.89
79037;BME280;68434;59.896;30.474;2023-04-25T10:18:19;100687.03;;;22.97;19.42
79037;BME280;68434;59.896;30.474;2023-04-25T10:20:47;100684.75;;;22.94;19.29
79037;BME280;68434;59.896;30.474;2023-04-25T10:23:15;100694.75;;;22.66;19.34
79037;BME280;68434;59.896;30.474;2023-04-25T10:25:44;100687.31;;;22.66;20.07
79037;BME280;68434;59.896;30.474;2023-04-25T10:28:11;100678.59;;;22.81;20.33
79037;BME280;68434;59.896;30.474;2023-04-25T10:30:56;100687.31;;;22.66;20.04
79037;BME280;68434;59.896;30.474;2023-04-25T10:33:30;100690.66;;;22.39;20.26
79037;BME280;68434;59.896;30.474;2023-04-25T10:36:08;100703.94;;;22.12;20.28
79037;BME280;68434;59.896;30.474;2023-04-25T10:38:36;100696.59;;;22.06;20.29
79037;BME280;68434;59.896;30.474;2023-04-25T10:41:07;100702.09;;;22.06;20.65
79037;BME280;68434;59.896;30.474;2023-04-25T10:43:37;100702.25;;;22.29;20.56
79037;BME280;68434;59.896;30.474;2023-04-25T10:46:19;100687.06;;;22.56;19.99
79037;BME280;68434;59.896;30.474;2023-04-25T10:48:50;100692.06;;;22.89;20.02
79037;BME280;68434;59.896;30.474;2023-04-25T10:51:21;100701.75;;;22.80;19.18
79037;BME280;68434;59.896;30.474;2023-04-25T10:53:59;100681.72;;;22.73;19.15
79037;BME280;68434;59.896;30.474;2023-04-25T10:56:33;100690.63;;;22.86;19.41
79037;BME280;68434;59.896;30.474;2023-04-25T10:59:09;100691.13;;;22.95;19.38
79037;BME280;68434;59.896;30.474;2023-04-25T11:01:39;100692.31;;;22.99;19.03
79037;BME280;68434;59.896;30.474;2023-04-25T11:04:19;100699.88;;;22.92;18.81
79037;BME280;68434;59.896;30.474;2023-04-25T11:07:00;100691.34;;;22.82;18.76
79037;BME280;68434;59.896;30.474;2023-04-25T11:09:30;100682.28;;;22.63;19.21
79037;BME280;68434;59.896;30.474;2023-04-25T11:11:59;100691.94;;;22.54;19.55
79037;BME280;68434;59.896;30.474;2023-04-25T11:14:27;100707.88;;;22.52;19.20
79037;BME280;68434;59.896;30.474;2023-04-25T11:16:55;100704.81;;;22.42;19.32
79037;BME280;68434;59.896;30.474;2023-04-25T11:19:23;100690.03;;;22.55;19.36
79037;BME280;68434;59.896;30.474;2023-04-25T11:21:55;100689.38;;;22.71;18.41
79037;BME280;68434;59.896;30.474;2023-04-25T11:24:26;100696.50;;;22.90;18.51
79037;BME280;68434;59.896;30.474;2023-04-25T11:26:55;100698.94;;;23.09;18.70
79037;BME280;68434;59.896;30.474;2023-04-25T11:29:26;100694.19;;;23.28;19.30
79037;BME280;68434;59.896;30.474;2023-04-25T11:31:54;100693.34;;;23.39;19.00
79037;BME280;68434;59.896;30.474;2023-04-25T11:34:24;100693.81;;;23.24;18.23
79037;BME280;68434;59.896;30.474;2023-04-25T11:36:52;100699.19;;;23.19;18.90
79037;BME280;68434;59.896;30.474;2023-04-25T11:39:19;100689.69;;;23.04;19.22
79037;BME280;68434;59.896;30.474;2023-04-25T11:41:47;100695.28;;;22.74;18.87
79037;BME280;68434;59.896;30.474;2023-04-25T11:44:15;100688.16;;;22.67;19.23
79037;BME280;68434;59.896;30.474;2023-04-25T11:46:44;100683.59;;;22.61;19.22
79037;BME280;68434;59.896;30.474;2023-04-25T11:49:12;100686.91;;;22.51;19.38
79037;BME280;68434;59.896;30.474;2023-04-25T11:51:40;100688.09;;;22.55;19.70
79037;BME280;68434;59.896;30.474;2023-04-25T11:54:07;100694.00;;;22.59;19.93
79037;BME280;68434;59.896;30.474;2023-04-25T11:56:35;100681.59;;;22.79;19.37
79037;BME280;68434;59.896;30.474;2023-04-25T11:59:04;100690.94;;;22.78;19.44
79037;BME280;68434;59.896;30.474;2023-04-25T12:01:33;100679.91;;;22.78;19.62
79037;BME280;68434;59.896;30.474;2023-04-25T12:04:14;100683.53;;;22.79;19.29
79037;BME280;68434;59.896;30.474;2023-04-25T12:06:45;100684.16;;;22.51;18.83
79037;BME280;68434;59.896;30.474;2023-04-25T12:09:15;100674.06;;;22.27;19.19
79037;BME280;68434;59.896;30.474;2023-04-25T12:11:45;100668.94;;;22.31;19.65
79037;BME280;68434;59.896;30.474;2023-04-25T12:14:21;100667.00;;;22.31;19.52
79037;BME280;68434;59.896;30.474;2023-04-25T12:21:10;100667.50;;;22.58;19.23
79037;BME280;68434;59.896;30.474;2023-04-25T12:23:38;100667.59;;;22.92;19.63
79037;BME280;68434;59.896;30.474;2023-04-25T12:26:07;100664.63;;;23.05;19.81
79037;BME280;68434;59.896;30.474;2023-04-25T12:28:35;100664.94;;;22.97;20.03
79037;BME280;68434;59.896;30.474;2023-04-25T12:31:03;100666.50;;;22.82;19.08
79037;BME280;68434;59.896;30.474;2023-04-25T12:33:33;100663.34;;;22.67;19.20
79037;BME280;68434;59.896;30.474;2023-04-25T12:36:02;100665.34;;;22.60;19.43
79037;BME280;68434;59.896;30.474;2023-04-25T12:38:38;100660.41;;;22.50;19.20
79037;BME280;68434;59.896;30.474;2023-04-25T12:41:07;100656.81;;;22.32;18.90
79037;BME280;68434;59.896;30.474;2023-04-25T12:43:35;100650.47;;;22.31;19.66
79037;BME280;68434;59.896;30.474;2023-04-25T12:46:03;100654.91;;;22.32;19.95
79037;BME280;68434;59.896;30.474;2023-04-25T12:48:30;100660.44;;;22.32;19.77
79037;BME280;68434;59.896;30.474;2023-04-25T12:50:59;100653.31;;;22.24;19.46
79037;BME280;68434;59.896;30.474;2023-04-25T12:53:26;100651.53;;;22.30;20.30
79037;BME280;68434;59.896;30.474;2023-04-25T12:55:56;100640.75;;;22.28;18.94
79037;BME280;68434;59.896;30.474;2023-04-25T12:58:24;100634.31;;;22.35;18.95
79037;BME280;68434;59.896;30.474;2023-04-25T13:00:51;100638.56;;;22.49;18.75
79037;BME280;68434;59.896;30.474;2023-04-25T13:03:19;100638.28;;;22.68;19.16
79037;BME280;68434;59.896;30.474;2023-04-25T13:05:47;100628.22;;;22.85;19.32
79037;BME280;68434;59.896;30.474;2023-04-25T13:08:16;100621.75;;;22.80;18.75
79037;BME280;68434;59.896;30.474;2023-04-25T13:10:43;100632.16;;;22.78;19.47
79037;BME280;68434;59.896;30.474;2023-04-25T13:13:12;100632.06;;;22.73;20.09
79037;BME280;68434;59.896;30.474;2023-04-25T13:15:40;100633.34;;;22.70;20.00